Ottignies, Belgium
Current Conditions -  °F | °C
As of 7:25 PM on Sunday 23 Nov 2014 (Local Time) from EBBE Reporting Station
Broken Clouds Broken Clouds  
Wind Chill: 54°   Ceiling: 13000
Heat Index: 54°   Visibility: 6mi
Dew Point: 50°   Wind: 6mph
Humidity: 88%   Direction: 190°S
Pressure: 29.94"   Gusts: NA
Location:  50.67°N, 4.57°E
Report Text: EBBE 231825Z AUTO 19005KT 9999 FEW110/// BKN130/// 12/10 Q1014 BLU
Loading
Personal Weather Stations






























Interactive Weather Map New forecast layout! Learn more

10-Day Weather Forecast

Advertisements
Track Severe Weather on mobile